createdAt,value
2023-02-21T00:00:06.233Z,8.33
2023-02-21T00:02:59.050Z,8.27
2023-02-21T00:05:46.086Z,8.38
2023-02-21T00:08:32.445Z,8.60
2023-02-21T00:11:18.790Z,8.54
2023-02-21T00:14:05.275Z,8.57
2023-02-21T00:16:51.762Z,8.66
2023-02-21T00:19:38.246Z,8.61
2023-02-21T00:22:24.741Z,8.49
2023-02-21T00:25:11.180Z,8.59
2023-02-21T00:27:57.746Z,8.62
2023-02-21T00:30:44.873Z,8.50
2023-02-21T00:33:31.709Z,8.54
2023-02-21T00:36:18.130Z,8.65
2023-02-21T00:39:05.037Z,8.69
2023-02-21T00:41:51.540Z,8.67
2023-02-21T00:44:38.159Z,8.54
2023-02-21T00:47:24.415Z,8.61
2023-02-21T00:50:12.343Z,8.58
2023-02-21T00:52:58.368Z,8.36
2023-02-21T00:55:44.778Z,8.52
2023-02-21T00:58:31.455Z,8.49
2023-02-21T01:01:18.093Z,8.62
2023-02-21T01:04:04.810Z,8.44
2023-02-21T01:06:51.239Z,8.42
2023-02-21T01:09:37.611Z,8.53
2023-02-21T01:12:24.714Z,8.54
2023-02-21T01:15:11.266Z,8.16
2023-02-21T01:17:57.554Z,8.20
2023-02-21T01:20:43.809Z,8.35
2023-02-21T01:23:30.370Z,8.10
2023-02-21T01:26:16.460Z,8.25
2023-02-21T01:29:03.115Z,8.16
2023-02-21T01:31:50.664Z,8.18
2023-02-21T01:34:36.997Z,8.04
2023-02-21T01:37:23.053Z,8.14
2023-02-21T01:40:10.932Z,8.20
2023-02-21T01:42:57.903Z,8.17
2023-02-21T01:46:17.864Z,8.28
2023-02-21T01:49:06.094Z,8.23
2023-02-21T01:51:56.542Z,8.11
2023-02-21T01:54:50.754Z,8.25
2023-02-21T01:57:38.956Z,8.22
2023-02-21T02:00:28.505Z,8.11
2023-02-21T02:03:28.442Z,8.29
2023-02-21T02:06:18.057Z,8.09
2023-02-21T02:09:05.127Z,8.12
2023-02-21T02:12:00.159Z,8.38
2023-02-21T02:14:52.530Z,8.21
2023-02-21T02:17:42.027Z,8.40
2023-02-21T02:20:45.266Z,8.05
2023-02-21T02:23:31.505Z,8.15
2023-02-21T02:26:50.391Z,8.08
2023-02-21T02:30:02.847Z,8.29
2023-02-21T02:32:46.396Z,8.28
2023-02-21T02:35:30.459Z,8.12
2023-02-21T02:38:28.138Z,8.36
2023-02-21T02:41:04.768Z,8.24
2023-02-21T02:43:38.838Z,8.36
2023-02-21T02:46:20.395Z,8.34
2023-02-21T02:48:54.107Z,8.38
2023-02-21T02:51:22.646Z,8.07
2023-02-21T02:53:50.376Z,8.02
2023-02-21T02:56:18.007Z,8.14
2023-02-21T02:58:51.417Z,8.09
2023-02-21T03:01:26.269Z,8.23
2023-02-21T03:04:24.698Z,8.26
2023-02-21T03:07:07.848Z,8.24
2023-02-21T03:09:55.562Z,8.08
2023-02-21T03:12:49.566Z,8.27
2023-02-21T03:15:19.471Z,8.12
2023-02-21T03:17:57.156Z,8.23
2023-02-21T03:20:28.482Z,8.01
2023-02-21T03:22:58.474Z,8.02
2023-02-21T03:25:29.334Z,8.06
2023-02-21T03:28:00.638Z,7.95
2023-02-21T03:30:30.537Z,7.97
2023-02-21T03:32:58.780Z,8.22
2023-02-21T03:35:30.199Z,8.19
2023-02-21T03:37:59.005Z,8.08
2023-02-21T03:40:29.928Z,8.11
2023-02-21T03:42:59.918Z,8.07
2023-02-21T03:45:28.121Z,8.20
2023-02-21T03:47:57.045Z,8.00
2023-02-21T03:50:25.373Z,8.08
2023-02-21T03:52:53.532Z,8.07
2023-02-21T03:55:22.274Z,7.96
2023-02-21T03:57:50.430Z,7.85
2023-02-21T04:00:20.308Z,7.96
2023-02-21T04:02:49.909Z,7.80
2023-02-21T04:05:18.556Z,7.92
2023-02-21T04:07:47.739Z,7.90
2023-02-21T04:10:16.739Z,7.76
2023-02-21T04:12:44.648Z,7.90
2023-02-21T04:15:12.337Z,8.10
2023-02-21T04:17:40.585Z,7.95
2023-02-21T04:20:10.726Z,8.02
2023-02-21T04:22:45.754Z,8.14
2023-02-21T04:25:16.078Z,8.27
2023-02-21T04:27:44.179Z,8.33
2023-02-21T04:30:12.527Z,8.34
2023-02-21T04:32:41.997Z,8.11
2023-02-21T04:35:10.026Z,8.14
2023-02-21T04:37:37.856Z,8.44
2023-02-21T04:40:06.397Z,8.24
2023-02-21T04:42:37.442Z,8.10
2023-02-21T04:45:05.731Z,8.37
2023-02-21T04:47:33.433Z,8.28
2023-02-21T04:50:01.068Z,8.34
2023-02-21T04:52:29.173Z,8.19
2023-02-21T04:54:56.729Z,8.66
2023-02-21T04:57:24.567Z,8.51
2023-02-21T04:59:58.125Z,8.40
2023-02-21T05:02:27.320Z,8.23
2023-02-21T05:04:55.308Z,8.48
2023-02-21T05:07:22.996Z,8.32
2023-02-21T05:09:51.990Z,8.34
2023-02-21T05:12:19.835Z,8.40
2023-02-21T05:14:47.523Z,8.48
2023-02-21T05:17:15.670Z,8.43
2023-02-21T05:19:43.628Z,8.15
2023-02-21T05:22:11.363Z,8.15
2023-02-21T05:24:46.398Z,8.30
2023-02-21T05:27:15.609Z,8.33
2023-02-21T05:29:52.534Z,8.21
2023-02-21T05:32:21.957Z,8.21
2023-02-21T05:34:49.730Z,8.15
2023-02-21T05:37:21.248Z,8.21
2023-02-21T05:39:51.905Z,8.15
2023-02-21T05:42:19.464Z,8.26
2023-02-21T05:44:47.861Z,8.26
2023-02-21T05:47:16.441Z,8.36
2023-02-21T05:49:45.589Z,8.15
2023-02-21T05:52:15.736Z,8.24
2023-02-21T05:54:44.702Z,8.19
2023-02-21T05:57:12.380Z,8.16
2023-02-21T05:59:41.092Z,8.52
2023-02-21T06:02:08.993Z,8.39
2023-02-21T06:04:36.921Z,8.43
2023-02-21T06:07:04.528Z,8.40
2023-02-21T06:09:32.164Z,8.44
2023-02-21T06:12:00.455Z,8.57
2023-02-21T06:14:28.088Z,8.57
2023-02-21T06:16:55.594Z,8.68
2023-02-21T06:19:23.615Z,8.62
2023-02-21T06:21:51.259Z,8.71
2023-02-21T06:24:18.986Z,8.70
2023-02-21T06:26:49.735Z,8.49
2023-02-21T06:29:17.417Z,8.60
2023-02-21T06:31:45.060Z,8.46
2023-02-21T06:34:13.060Z,8.69
2023-02-21T06:36:40.735Z,8.77
2023-02-21T06:39:10.646Z,8.72
2023-02-21T06:41:38.670Z,8.93
2023-02-21T06:44:06.294Z,9.19
2023-02-21T06:46:36.421Z,9.09
2023-02-21T06:49:05.452Z,9.24
2023-02-21T06:51:37.846Z,9.43
2023-02-21T06:54:08.010Z,9.55
2023-02-21T06:56:36.206Z,9.68
2023-02-21T06:59:04.261Z,9.88
2023-02-21T07:01:32.492Z,9.72
2023-02-21T07:04:00.285Z,10.05
2023-02-21T07:06:29.818Z,10.12
2023-02-21T07:08:57.998Z,10.00
2023-02-21T07:11:25.806Z,9.96
2023-02-21T07:13:56.820Z,10.24
2023-02-21T07:16:25.391Z,10.38
2023-02-21T07:18:53.158Z,10.54
2023-02-21T07:21:22.101Z,10.50
2023-02-21T07:23:50.279Z,10.70
2023-02-21T07:26:17.935Z,10.81
2023-02-21T07:28:48.589Z,10.92
2023-02-21T07:31:19.471Z,11.07
2023-02-21T07:33:47.607Z,11.14
2023-02-21T07:36:15.637Z,11.29
2023-02-21T07:38:43.683Z,11.30
2023-02-21T07:41:11.550Z,11.25
2023-02-21T07:43:39.346Z,11.20
2023-02-21T07:46:11.998Z,11.23
2023-02-21T07:48:39.899Z,11.50
2023-02-21T07:51:08.875Z,11.55
2023-02-21T07:53:36.876Z,11.63
2023-02-21T07:56:05.284Z,11.84
2023-02-21T07:58:37.345Z,11.85
2023-02-21T08:01:06.590Z,11.84
2023-02-21T08:03:34.906Z,11.95
2023-02-21T08:06:02.487Z,11.93
2023-02-21T08:08:30.332Z,12.27
2023-02-21T08:10:58.378Z,12.27
2023-02-21T08:13:26.018Z,12.55
2023-02-21T08:15:53.617Z,12.73
2023-02-21T08:18:24.659Z,12.89
2023-02-21T08:20:52.924Z,13.01
2023-02-21T08:23:21.656Z,13.04
2023-02-21T08:25:49.678Z,13.37
2023-02-21T08:28:17.993Z,13.32
2023-02-21T08:30:46.014Z,13.19
2023-02-21T08:33:13.654Z,13.18
2023-02-21T08:35:41.312Z,13.15
2023-02-21T08:38:10.578Z,13.35
2023-02-21T08:40:38.306Z,13.23
2023-02-21T08:43:06.071Z,13.30
2023-02-21T08:45:34.021Z,13.09
2023-02-21T08:48:02.050Z,13.39
2023-02-21T08:50:30.124Z,13.74
2023-02-21T08:52:58.081Z,13.80
2023-02-21T08:55:25.740Z,13.96
2023-02-21T08:57:54.955Z,13.95
2023-02-21T09:00:25.168Z,13.94
2023-02-21T09:02:52.928Z,13.84
2023-02-21T09:05:26.951Z,14.08
2023-02-21T09:07:59.122Z,14.10
2023-02-21T09:10:29.040Z,14.39
2023-02-21T09:12:57.452Z,14.42
2023-02-21T09:15:25.055Z,14.44
2023-02-21T09:17:54.657Z,14.63
2023-02-21T09:20:26.347Z,14.71
2023-02-21T09:22:54.582Z,14.59
2023-02-21T09:25:24.700Z,14.62
2023-02-21T09:27:54.576Z,14.88
2023-02-21T09:30:26.834Z,14.81
2023-02-21T09:32:55.469Z,14.67
2023-02-21T09:35:23.880Z,14.87
2023-02-21T09:37:51.768Z,14.90
2023-02-21T09:40:45.739Z,15.08
2023-02-21T09:43:43.211Z,15.09
2023-02-21T09:46:20.480Z,14.99
2023-02-21T09:48:48.833Z,14.95
2023-02-21T09:51:17.281Z,14.98
2023-02-21T09:53:48.420Z,14.93
2023-02-21T09:56:25.488Z,15.24
2023-02-21T09:58:53.071Z,14.90
2023-02-21T10:01:23.974Z,14.89
2023-02-21T10:04:04.968Z,15.24
2023-02-21T10:07:00.051Z,15.57
2023-02-21T10:09:27.947Z,15.95
2023-02-21T10:12:10.231Z,15.40
2023-02-21T10:15:15.828Z,15.75
2023-02-21T10:18:19.294Z,15.76
2023-02-21T10:21:01.639Z,15.88
2023-02-21T10:24:04.754Z,15.87
2023-02-21T10:26:41.239Z,16.07
2023-02-21T10:29:23.628Z,16.14
2023-02-21T10:32:00.041Z,16.37
2023-02-21T10:34:29.854Z,16.38
2023-02-21T10:37:11.560Z,16.33
2023-02-21T10:39:46.389Z,16.61
2023-02-21T10:42:26.529Z,16.52
2023-02-21T10:44:56.060Z,16.49
2023-02-21T10:47:45.193Z,16.50
2023-02-21T10:50:15.207Z,16.56
2023-02-21T10:52:52.475Z,16.94
2023-02-21T10:55:32.765Z,17.12
2023-02-21T10:58:10.423Z,16.92
2023-02-21T11:00:47.982Z,17.19
2023-02-21T11:03:19.021Z,16.98
2023-02-21T11:05:57.744Z,16.87
2023-02-21T11:08:40.795Z,17.06
2023-02-21T11:11:09.666Z,16.95
2023-02-21T11:13:38.038Z,16.66
2023-02-21T11:16:15.817Z,16.64
2023-02-21T11:18:44.739Z,16.55
2023-02-21T11:21:16.367Z,16.66
2023-02-21T11:23:49.802Z,16.65
2023-02-21T11:26:17.554Z,16.74
2023-02-21T11:28:47.446Z,16.59
2023-02-21T11:31:27.117Z,16.65
2023-02-21T11:34:01.836Z,16.41
2023-02-21T11:36:39.025Z,16.31
2023-02-21T11:39:28.096Z,16.43
2023-02-21T11:41:58.488Z,16.30
2023-02-21T11:44:35.093Z,16.15
2023-02-21T11:47:29.236Z,16.10
2023-02-21T11:50:10.472Z,16.09
2023-02-21T11:52:49.954Z,15.79
2023-02-21T11:55:26.375Z,16.04
2023-02-21T11:58:22.468Z,16.30
2023-02-21T12:01:06.243Z,16.23
2023-02-21T12:03:59.676Z,16.43
2023-02-21T12:06:33.197Z,16.31
2023-02-21T12:09:44.703Z,16.44
2023-02-21T12:12:21.349Z,16.43
2023-02-21T12:14:58.227Z,16.26
2023-02-21T12:18:05.847Z,16.28
2023-02-21T12:20:49.555Z,16.11
2023-02-21T12:23:45.054Z,15.98
2023-02-21T12:26:28.801Z,16.02
2023-02-21T12:29:02.213Z,15.92
2023-02-21T12:31:59.104Z,15.94
2023-02-21T12:34:34.030Z,15.87
2023-02-21T12:37:07.414Z,15.80
2023-02-21T12:40:05.130Z,15.94
2023-02-21T12:43:14.072Z,16.01
2023-02-21T12:45:50.086Z,15.95
2023-02-21T12:49:01.273Z,16.13
2023-02-21T12:51:35.649Z,16.13
2023-02-21T12:54:09.809Z,16.18
2023-02-21T12:57:02.022Z,16.27
2023-02-21T13:00:00.930Z,16.18
2023-02-21T13:02:42.936Z,16.51
2023-02-21T13:05:18.616Z,16.37
2023-02-21T13:07:51.896Z,16.42
2023-02-21T13:10:26.553Z,16.47
2023-02-21T13:13:02.762Z,16.50
2023-02-21T13:15:31.540Z,16.59
2023-02-21T13:18:11.180Z,16.76
2023-02-21T13:20:47.880Z,16.63
2023-02-21T13:23:51.666Z,16.58
2023-02-21T13:26:25.207Z,16.48
2023-02-21T13:28:57.887Z,16.57
2023-02-21T13:31:38.278Z,16.54
2023-02-21T13:34:09.022Z,16.45
2023-02-21T13:36:40.098Z,16.56
2023-02-21T13:39:17.425Z,16.68
2023-02-21T13:41:52.380Z,16.72
2023-02-21T13:44:31.624Z,16.68
2023-02-21T13:47:10.951Z,16.78
2023-02-21T13:49:55.082Z,16.77
2023-02-21T13:52:29.020Z,16.65
2023-02-21T13:55:09.032Z,16.56
2023-02-21T13:57:57.989Z,16.59
2023-02-21T14:00:25.918Z,16.59
2023-02-21T14:02:56.886Z,16.69
2023-02-21T14:05:25.612Z,16.72
2023-02-21T14:07:54.673Z,16.63
2023-02-21T14:10:32.746Z,16.47
2023-02-21T14:13:05.504Z,16.50
2023-02-21T14:15:43.297Z,16.58
2023-02-21T14:18:18.790Z,16.60
2023-02-21T14:20:50.033Z,16.34
2023-02-21T14:23:20.672Z,16.43
2023-02-21T14:25:58.401Z,16.58
2023-02-21T14:28:49.186Z,16.49
2023-02-21T14:31:46.056Z,16.46
2023-02-21T14:34:17.949Z,16.39
2023-02-21T14:36:46.822Z,16.36
2023-02-21T14:39:15.465Z,16.31
2023-02-21T14:41:43.071Z,16.35
2023-02-21T14:44:27.454Z,16.39
2023-02-21T14:47:25.677Z,16.44
2023-02-21T14:50:24.486Z,16.36
2023-02-21T14:53:46.827Z,16.16
2023-02-21T14:56:36.231Z,15.93
2023-02-21T14:59:31.454Z,15.64
2023-02-21T15:02:32.601Z,15.51
2023-02-21T15:05:12.570Z,15.42
2023-02-21T15:08:26.702Z,15.33
2023-02-21T15:11:02.895Z,15.35
2023-02-21T15:13:33.393Z,15.29
2023-02-21T15:16:08.706Z,15.19
2023-02-21T15:18:37.470Z,15.05
2023-02-21T15:21:23.695Z,15.13
2023-02-21T15:24:23.101Z,15.03
2023-02-21T15:27:11.873Z,15.01
2023-02-21T15:29:41.358Z,14.95
2023-02-21T15:32:12.624Z,14.85
2023-02-21T15:34:43.272Z,14.69
2023-02-21T15:37:20.733Z,14.58
2023-02-21T15:40:00.720Z,14.49
2023-02-21T15:42:32.917Z,14.46
2023-02-21T15:45:04.735Z,14.38
2023-02-21T15:47:34.845Z,14.19
2023-02-21T15:50:18.659Z,14.42
2023-02-21T15:52:51.484Z,14.28
2023-02-21T15:55:19.410Z,14.06
2023-02-21T15:58:02.000Z,13.86
2023-02-21T16:00:34.110Z,13.86
2023-02-21T16:03:29.941Z,13.74
2023-02-21T16:06:29.138Z,13.62
2023-02-21T16:09:01.841Z,13.56
2023-02-21T16:11:45.854Z,13.46
2023-02-21T16:14:43.005Z,13.34
2023-02-21T16:17:20.426Z,13.37
2023-02-21T16:19:53.945Z,13.28
2023-02-21T16:22:59.571Z,13.21
2023-02-21T16:25:27.988Z,13.15
2023-02-21T16:28:02.106Z,13.15
2023-02-21T16:30:32.080Z,13.10
2023-02-21T16:33:02.739Z,12.95
2023-02-21T16:35:32.044Z,12.89
2023-02-21T16:38:00.954Z,12.97
2023-02-21T16:40:33.531Z,13.03
2023-02-21T16:43:04.102Z,13.13
2023-02-21T16:45:32.539Z,13.12
2023-02-21T16:48:03.816Z,13.06
2023-02-21T16:50:37.855Z,13.15
2023-02-21T16:53:06.134Z,13.07
2023-02-21T16:55:34.093Z,13.11
2023-02-21T16:58:07.283Z,13.03
2023-02-21T17:00:39.915Z,13.13
2023-02-21T17:03:07.835Z,13.03
2023-02-21T17:05:36.109Z,13.01
2023-02-21T17:08:04.505Z,12.85
2023-02-21T17:10:33.293Z,12.83
2023-02-21T17:13:03.680Z,12.72
2023-02-21T17:15:32.219Z,12.72
2023-02-21T17:18:00.833Z,12.76
2023-02-21T17:20:29.906Z,12.66
2023-02-21T17:22:58.524Z,12.74
2023-02-21T17:25:27.354Z,12.81
2023-02-21T17:27:55.280Z,12.86
2023-02-21T17:30:25.148Z,12.82
2023-02-21T17:32:53.143Z,12.94
2023-02-21T17:35:22.542Z,13.06
2023-02-21T17:37:51.638Z,12.94
2023-02-21T17:40:21.969Z,13.03
2023-02-21T17:42:50.587Z,12.88
2023-02-21T17:45:21.973Z,12.85
2023-02-21T17:47:58.674Z,12.69
2023-02-21T17:50:26.612Z,12.62
2023-02-21T17:52:54.833Z,12.68
2023-02-21T17:55:26.081Z,12.60
2023-02-21T17:57:54.188Z,12.71
2023-02-21T18:00:26.799Z,12.53
2023-02-21T18:02:56.391Z,12.51
2023-02-21T18:05:24.372Z,12.44
2023-02-21T18:07:53.866Z,12.35
2023-02-21T18:10:24.852Z,12.19
2023-02-21T18:12:53.299Z,12.05
2023-02-21T18:15:23.534Z,12.00
2023-02-21T18:17:51.683Z,12.05
2023-02-21T18:20:19.919Z,12.13
2023-02-21T18:22:48.570Z,12.10
2023-02-21T18:25:18.132Z,11.99
2023-02-21T18:27:45.968Z,12.11
2023-02-21T18:30:14.202Z,12.04
2023-02-21T18:32:43.687Z,12.11
2023-02-21T18:35:12.079Z,12.22
2023-02-21T18:37:41.450Z,12.28
2023-02-21T18:40:11.902Z,12.38
2023-02-21T18:42:43.605Z,12.38
2023-02-21T18:45:12.401Z,12.31
2023-02-21T18:47:40.643Z,12.29
2023-02-21T18:50:10.477Z,12.18
2023-02-21T18:52:40.436Z,12.17
2023-02-21T18:55:08.419Z,12.08
2023-02-21T18:57:36.343Z,11.96
2023-02-21T19:00:07.171Z,11.90
2023-02-21T19:02:36.346Z,11.92
2023-02-21T19:05:04.592Z,11.96
2023-02-21T19:07:36.415Z,12.05
2023-02-21T19:10:07.004Z,12.05
2023-02-21T19:12:35.045Z,12.03
2023-02-21T19:15:03.636Z,12.09
2023-02-21T19:17:32.293Z,12.12
2023-02-21T19:20:06.134Z,12.27
2023-02-21T19:22:34.445Z,12.19
2023-02-21T19:25:02.611Z,12.17
2023-02-21T19:27:30.817Z,11.96
2023-02-21T19:29:59.494Z,11.93
2023-02-21T19:32:29.182Z,11.85
2023-02-21T19:34:57.001Z,11.85
2023-02-21T19:37:25.162Z,11.76
2023-02-21T19:39:55.429Z,11.73
2023-02-21T19:42:23.343Z,11.52
2023-02-21T19:44:51.797Z,11.41
2023-02-21T19:47:19.640Z,11.40
2023-02-21T19:49:48.565Z,11.19
2023-02-21T19:52:16.842Z,11.33
2023-02-21T19:54:46.899Z,11.34
2023-02-21T19:57:17.984Z,11.28
2023-02-21T19:59:49.564Z,11.32
2023-02-21T20:02:17.563Z,11.33
2023-02-21T20:04:48.124Z,11.29
2023-02-21T20:07:16.863Z,11.41
2023-02-21T20:09:47.181Z,11.32
2023-02-21T20:12:22.750Z,11.26
2023-02-21T20:14:53.674Z,11.30
2023-02-21T20:17:21.778Z,11.33
2023-02-21T20:19:50.475Z,11.19
2023-02-21T20:22:19.471Z,11.22
2023-02-21T20:24:47.765Z,11.14
2023-02-21T20:27:16.246Z,11.21
2023-02-21T20:29:46.216Z,11.06
2023-02-21T20:32:17.701Z,11.11
2023-02-21T20:34:45.649Z,11.11
2023-02-21T20:37:14.501Z,11.12
2023-02-21T20:39:44.195Z,11.07
2023-02-21T20:42:12.144Z,10.92
2023-02-21T20:44:40.207Z,10.99
2023-02-21T20:47:11.251Z,11.08
2023-02-21T20:49:42.211Z,10.93
2023-02-21T20:52:10.368Z,10.94
2023-02-21T20:54:38.421Z,10.93
2023-02-21T20:57:06.620Z,10.91
2023-02-21T20:59:37.601Z,10.90
2023-02-21T21:02:06.634Z,10.91
2023-02-21T21:04:38.558Z,11.01
2023-02-21T21:07:20.119Z,11.04
2023-02-21T21:09:49.802Z,10.90
2023-02-21T21:12:21.170Z,11.00
2023-02-21T21:14:51.036Z,10.79
2023-02-21T21:17:20.337Z,10.75
2023-02-21T21:19:49.481Z,10.87
2023-02-21T21:22:21.002Z,11.03
2023-02-21T21:24:50.127Z,11.05
2023-02-21T21:27:21.671Z,10.91
2023-02-21T21:29:50.012Z,10.84
2023-02-21T21:32:21.717Z,11.01
2023-02-21T21:34:58.310Z,11.04
2023-02-21T21:37:28.598Z,10.99
2023-02-21T21:39:56.981Z,10.96
2023-02-21T21:42:27.260Z,11.03
2023-02-21T21:44:56.884Z,11.02
2023-02-21T21:47:27.930Z,11.02
2023-02-21T21:49:56.024Z,10.92
2023-02-21T21:52:26.642Z,10.94
2023-02-21T21:54:54.440Z,10.89
2023-02-21T21:57:28.322Z,10.88
2023-02-21T21:59:58.372Z,10.63
2023-02-21T22:02:26.248Z,10.54
2023-02-21T22:04:54.676Z,10.83
2023-02-21T22:07:23.029Z,10.80
2023-02-21T22:09:52.571Z,10.82
2023-02-21T22:12:21.082Z,10.77
2023-02-21T22:14:50.022Z,10.67
2023-02-21T22:17:18.985Z,10.74
2023-02-21T22:19:50.619Z,10.93
2023-02-21T22:22:18.597Z,10.80
2023-02-21T22:24:46.230Z,10.77
2023-02-21T22:27:14.879Z,10.78
2023-02-21T22:29:42.916Z,10.73
2023-02-21T22:32:10.542Z,10.77
2023-02-21T22:34:38.636Z,10.60
2023-02-21T22:37:06.293Z,10.44
2023-02-21T22:39:34.165Z,10.59
2023-02-21T22:42:05.348Z,10.66
2023-02-21T22:44:33.013Z,10.69
2023-02-21T22:47:00.574Z,10.67
2023-02-21T22:49:30.699Z,10.66
2023-02-21T22:52:03.730Z,10.57
2023-02-21T22:54:31.773Z,10.39
2023-02-21T22:57:04.069Z,10.38
2023-02-21T22:59:35.369Z,9.95
2023-02-21T23:02:03.749Z,9.93
2023-02-21T23:04:37.493Z,9.69
2023-02-21T23:07:05.876Z,9.52
2023-02-21T23:09:37.169Z,9.65
2023-02-21T23:12:05.945Z,9.90
2023-02-21T23:14:35.204Z,9.77
2023-02-21T23:17:03.233Z,9.59
2023-02-21T23:19:32.267Z,9.70
2023-02-21T23:22:01.450Z,9.71
2023-02-21T23:24:29.192Z,9.55
2023-02-21T23:26:56.763Z,9.45
2023-02-21T23:29:26.260Z,9.20
2023-02-21T23:32:09.428Z,8.95
2023-02-21T23:34:41.191Z,8.85
2023-02-21T23:37:12.396Z,8.84
2023-02-21T23:39:42.250Z,8.67
2023-02-21T23:42:11.102Z,9.16
2023-02-21T23:44:39.305Z,8.81
2023-02-21T23:47:07.179Z,8.77
2023-02-21T23:49:34.851Z,8.53
2023-02-21T23:52:04.079Z,8.62
2023-02-21T23:54:31.984Z,8.95
2023-02-21T23:57:00.702Z,9.05
2023-02-21T23:59:29.082Z,8.67
